sensor_id;sensor_type;location;lat;lon;timestamp;temperature;humidity
37285;DHT22;23172;53.550;9.964;2022-08-18T00:02:24;25.60;61.30
37285;DHT22;23172;53.550;9.964;2022-08-18T00:07:29;25.60;61.20
37285;DHT22;23172;53.550;9.964;2022-08-18T00:12:35;25.60;61.10
37285;DHT22;23172;53.550;9.964;2022-08-18T00:17:38;25.60;61.00
37285;DHT22;23172;53.550;9.964;2022-08-18T00:22:40;25.60;61.10
37285;DHT22;23172;53.550;9.964;2022-08-18T00:27:43;25.60;61.00
37285;DHT22;23172;53.550;9.964;2022-08-18T00:32:48;25.60;61.00
37285;DHT22;23172;53.550;9.964;2022-08-18T00:37:51;25.60;61.10
37285;DHT22;23172;53.550;9.964;2022-08-18T00:42:57;25.60;61.30
37285;DHT22;23172;53.550;9.964;2022-08-18T00:47:59;25.60;61.50
37285;DHT22;23172;53.550;9.964;2022-08-18T00:53:04;25.50;61.80
37285;DHT22;23172;53.550;9.964;2022-08-18T00:58:10;25.40;62.40
37285;DHT22;23172;53.550;9.964;2022-08-18T01:03:16;25.40;62.60
37285;DHT22;23172;53.550;9.964;2022-08-18T01:08:19;25.40;62.80
37285;DHT22;23172;53.550;9.964;2022-08-18T01:13:24;25.40;63.00
37285;DHT22;23172;53.550;9.964;2022-08-18T01:18:27;25.40;63.20
37285;DHT22;23172;53.550;9.964;2022-08-18T01:23:49;25.40;63.20
37285;DHT22;23172;53.550;9.964;2022-08-18T01:28:51;25.50;63.00
37285;DHT22;23172;53.550;9.964;2022-08-18T01:33:53;25.50;63.10
37285;DHT22;23172;53.550;9.964;2022-08-18T01:38:57;25.40;64.30
37285;DHT22;23172;53.550;9.964;2022-08-18T01:44:01;25.40;63.60
37285;DHT22;23172;53.550;9.964;2022-08-18T01:49:04;25.40;63.70
37285;DHT22;23172;53.550;9.964;2022-08-18T01:54:10;25.50;63.50
37285;DHT22;23172;53.550;9.964;2022-08-18T01:59:12;25.50;63.40
37285;DHT22;23172;53.550;9.964;2022-08-18T02:04:16;25.50;63.30
37285;DHT22;23172;53.550;9.964;2022-08-18T02:09:19;25.50;63.50
37285;DHT22;23172;53.550;9.964;2022-08-18T02:14:22;25.50;63.50
37285;DHT22;23172;53.550;9.964;2022-08-18T02:19:23;25.50;63.40
37285;DHT22;23172;53.550;9.964;2022-08-18T02:24:27;25.50;63.40
37285;DHT22;23172;53.550;9.964;2022-08-18T02:29:28;25.50;63.30
37285;DHT22;23172;53.550;9.964;2022-08-18T02:34:30;25.50;63.20
37285;DHT22;23172;53.550;9.964;2022-08-18T02:39:34;25.50;63.20
37285;DHT22;23172;53.550;9.964;2022-08-18T02:44:37;25.50;63.10
37285;DHT22;23172;53.550;9.964;2022-08-18T02:49:39;25.50;63.10
37285;DHT22;23172;53.550;9.964;2022-08-18T02:54:43;25.50;63.00
37285;DHT22;23172;53.550;9.964;2022-08-18T02:59:44;25.40;63.00
37285;DHT22;23172;53.550;9.964;2022-08-18T03:04:46;25.40;62.90
37285;DHT22;23172;53.550;9.964;2022-08-18T03:09:50;25.30;62.90
37285;DHT22;23172;53.550;9.964;2022-08-18T03:14:52;25.30;63.00
37285;DHT22;23172;53.550;9.964;2022-08-18T03:19:54;25.30;63.10
37285;DHT22;23172;53.550;9.964;2022-08-18T03:24:57;25.30;63.10
37285;DHT22;23172;53.550;9.964;2022-08-18T03:29:59;25.30;63.20
37285;DHT22;23172;53.550;9.964;2022-08-18T03:35:02;25.20;62.90
37285;DHT22;23172;53.550;9.964;2022-08-18T03:40:06;25.20;63.00
37285;DHT22;23172;53.550;9.964;2022-08-18T03:45:09;25.20;63.00
37285;DHT22;23172;53.550;9.964;2022-08-18T03:50:11;25.20;62.90
37285;DHT22;23172;53.550;9.964;2022-08-18T03:55:14;25.10;63.10
37285;DHT22;23172;53.550;9.964;2022-08-18T04:00:17;25.10;63.00
37285;DHT22;23172;53.550;9.964;2022-08-18T04:05:19;25.10;63.10
37285;DHT22;23172;53.550;9.964;2022-08-18T04:10:22;25.10;63.10
37285;DHT22;23172;53.550;9.964;2022-08-18T04:15:24;25.10;63.40
37285;DHT22;23172;53.550;9.964;2022-08-18T04:20:25;25.00;63.50
37285;DHT22;23172;53.550;9.964;2022-08-18T04:25:29;25.00;63.80
37285;DHT22;23172;53.550;9.964;2022-08-18T04:30:32;25.00;64.20
37285;DHT22;23172;53.550;9.964;2022-08-18T04:35:34;24.90;64.70
37285;DHT22;23172;53.550;9.964;2022-08-18T04:40:37;24.80;64.90
37285;DHT22;23172;53.550;9.964;2022-08-18T04:45:40;24.90;65.00
37285;DHT22;23172;53.550;9.964;2022-08-18T04:50:44;24.80;65.10
37285;DHT22;23172;53.550;9.964;2022-08-18T04:55:48;24.80;65.40
37285;DHT22;23172;53.550;9.964;2022-08-18T05:00:56;24.80;65.50
37285;DHT22;23172;53.550;9.964;2022-08-18T05:05:58;24.80;65.80
37285;DHT22;23172;53.550;9.964;2022-08-18T05:11:01;24.80;65.90
37285;DHT22;23172;53.550;9.964;2022-08-18T05:16:03;24.90;65.60
37285;DHT22;23172;53.550;9.964;2022-08-18T05:21:06;25.00;65.40
37285;DHT22;23172;53.550;9.964;2022-08-18T05:26:16;25.00;65.30
37285;DHT22;23172;53.550;9.964;2022-08-18T05:31:19;25.10;65.40
37285;DHT22;23172;53.550;9.964;2022-08-18T05:36:44;25.10;65.40
37285;DHT22;23172;53.550;9.964;2022-08-18T05:41:51;25.10;65.30
37285;DHT22;23172;53.550;9.964;2022-08-18T05:46:55;25.10;65.40
37285;DHT22;23172;53.550;9.964;2022-08-18T05:52:02;25.20;65.60
37285;DHT22;23172;53.550;9.964;2022-08-18T05:57:10;25.20;65.60
37285;DHT22;23172;53.550;9.964;2022-08-18T06:02:17;25.20;65.60
37285;DHT22;23172;53.550;9.964;2022-08-18T06:07:27;25.10;66.60
37285;DHT22;23172;53.550;9.964;2022-08-18T06:12:36;25.20;66.00
37285;DHT22;23172;53.550;9.964;2022-08-18T06:17:59;25.20;66.10
37285;DHT22;23172;53.550;9.964;2022-08-18T06:23:16;25.10;66.40
37285;DHT22;23172;53.550;9.964;2022-08-18T06:28:21;25.10;66.50
37285;DHT22;23172;53.550;9.964;2022-08-18T06:33:36;25.10;66.60
37285;DHT22;23172;53.550;9.964;2022-08-18T06:38:52;25.00;66.80
37285;DHT22;23172;53.550;9.964;2022-08-18T06:43:59;24.80;67.20
37285;DHT22;23172;53.550;9.964;2022-08-18T06:49:04;24.80;67.70
37285;DHT22;23172;53.550;9.964;2022-08-18T06:54:25;24.70;68.10
37285;DHT22;23172;53.550;9.964;2022-08-18T06:59:30;24.70;68.50
37285;DHT22;23172;53.550;9.964;2022-08-18T07:04:39;24.60;68.70
37285;DHT22;23172;53.550;9.964;2022-08-18T07:09:41;24.50;69.20
37285;DHT22;23172;53.550;9.964;2022-08-18T07:14:48;24.40;69.60
37285;DHT22;23172;53.550;9.964;2022-08-18T07:19:59;24.40;69.90
37285;DHT22;23172;53.550;9.964;2022-08-18T07:25:03;24.30;70.30
37285;DHT22;23172;53.550;9.964;2022-08-18T07:30:09;24.30;70.60
37285;DHT22;23172;53.550;9.964;2022-08-18T07:35:13;24.30;70.70
37285;DHT22;23172;53.550;9.964;2022-08-18T07:40:24;24.30;70.70
37285;DHT22;23172;53.550;9.964;2022-08-18T07:45:32;24.30;70.90
37285;DHT22;23172;53.550;9.964;2022-08-18T07:50:41;24.30;70.80
37285;DHT22;23172;53.550;9.964;2022-08-18T07:55:49;24.30;70.70
37285;DHT22;23172;53.550;9.964;2022-08-18T08:01:02;24.30;71.00
37285;DHT22;23172;53.550;9.964;2022-08-18T08:06:08;24.30;71.20
37285;DHT22;23172;53.550;9.964;2022-08-18T08:11:25;24.20;71.30
37285;DHT22;23172;53.550;9.964;2022-08-18T08:16:37;24.30;71.60
37285;DHT22;23172;53.550;9.964;2022-08-18T08:21:47;24.20;71.60
37285;DHT22;23172;53.550;9.964;2022-08-18T08:26:53;24.30;71.80
37285;DHT22;23172;53.550;9.964;2022-08-18T08:32:03;24.40;71.80
37285;DHT22;23172;53.550;9.964;2022-08-18T08:37:07;24.50;71.50
37285;DHT22;23172;53.550;9.964;2022-08-18T08:42:14;24.50;71.50
37285;DHT22;23172;53.550;9.964;2022-08-18T08:47:22;24.70;71.40
37285;DHT22;23172;53.550;9.964;2022-08-18T08:52:28;24.80;71.20
37285;DHT22;23172;53.550;9.964;2022-08-18T08:57:34;24.80;71.10
37285;DHT22;23172;53.550;9.964;2022-08-18T09:02:53;25.00;71.10
37285;DHT22;23172;53.550;9.964;2022-08-18T09:08:22;25.20;71.20
37285;DHT22;23172;53.550;9.964;2022-08-18T09:13:46;25.40;69.90
37285;DHT22;23172;53.550;9.964;2022-08-18T09:19:08;25.40;69.30
37285;DHT22;23172;53.550;9.964;2022-08-18T09:24:21;25.40;69.20
37285;DHT22;23172;53.550;9.964;2022-08-18T09:29:45;25.50;68.90
37285;DHT22;23172;53.550;9.964;2022-08-18T09:34:58;25.50;68.70
37285;DHT22;23172;53.550;9.964;2022-08-18T09:40:11;25.60;68.40
37285;DHT22;23172;53.550;9.964;2022-08-18T09:45:56;25.70;68.50
37285;DHT22;23172;53.550;9.964;2022-08-18T09:51:34;25.80;67.80
37285;DHT22;23172;53.550;9.964;2022-08-18T10:13:47;25.90;67.10
37285;DHT22;23172;53.550;9.964;2022-08-18T10:18:58;26.00;67.70
37285;DHT22;23172;53.550;9.964;2022-08-18T10:24:16;26.20;67.60
37285;DHT22;23172;53.550;9.964;2022-08-18T10:29:50;26.50;67.10
37285;DHT22;23172;53.550;9.964;2022-08-18T10:34:52;26.70;66.00
37285;DHT22;23172;53.550;9.964;2022-08-18T10:39:59;26.70;65.20
37285;DHT22;23172;53.550;9.964;2022-08-18T10:45:08;26.70;64.90
37285;DHT22;23172;53.550;9.964;2022-08-18T10:50:21;26.50;64.70
37285;DHT22;23172;53.550;9.964;2022-08-18T10:55:36;26.60;65.10
37285;DHT22;23172;53.550;9.964;2022-08-18T11:00:47;26.80;65.50
37285;DHT22;23172;53.550;9.964;2022-08-18T11:06:00;27.10;65.00
37285;DHT22;23172;53.550;9.964;2022-08-18T11:11:07;27.40;64.40
37285;DHT22;23172;53.550;9.964;2022-08-18T11:16:12;27.70;64.30
37285;DHT22;23172;53.550;9.964;2022-08-18T11:21:31;27.90;63.40
37285;DHT22;23172;53.550;9.964;2022-08-18T11:26:36;28.00;62.30
37285;DHT22;23172;53.550;9.964;2022-08-18T11:31:39;28.00;61.80
37285;DHT22;23172;53.550;9.964;2022-08-18T11:36:41;28.00;61.80
37285;DHT22;23172;53.550;9.964;2022-08-18T11:41:45;28.20;61.40
37285;DHT22;23172;53.550;9.964;2022-08-18T11:46:53;28.60;61.00
37285;DHT22;23172;53.550;9.964;2022-08-18T11:51:58;28.70;59.80
37285;DHT22;23172;53.550;9.964;2022-08-18T11:57:29;28.80;59.30
37285;DHT22;23172;53.550;9.964;2022-08-18T12:02:31;28.90;58.70
37285;DHT22;23172;53.550;9.964;2022-08-18T12:07:34;29.10;58.90
37285;DHT22;23172;53.550;9.964;2022-08-18T12:12:44;29.50;58.30
37285;DHT22;23172;53.550;9.964;2022-08-18T12:17:47;29.80;57.50
37285;DHT22;23172;53.550;9.964;2022-08-18T12:22:49;29.90;57.00
37285;DHT22;23172;53.550;9.964;2022-08-18T12:27:54;30.20;56.80
37285;DHT22;23172;53.550;9.964;2022-08-18T12:32:56;30.50;55.90
37285;DHT22;23172;53.550;9.964;2022-08-18T12:37:58;30.80;54.90
37285;DHT22;23172;53.550;9.964;2022-08-18T12:43:01;31.00;53.90
37285;DHT22;23172;53.550;9.964;2022-08-18T12:48:03;31.30;53.10
37285;DHT22;23172;53.550;9.964;2022-08-18T12:53:05;31.50;52.30
37285;DHT22;23172;53.550;9.964;2022-08-18T12:58:09;31.70;51.70
37285;DHT22;23172;53.550;9.964;2022-08-18T13:03:11;31.70;51.30
37285;DHT22;23172;53.550;9.964;2022-08-18T13:08:16;31.70;51.20
37285;DHT22;23172;53.550;9.964;2022-08-18T13:13:20;31.80;51.10
37285;DHT22;23172;53.550;9.964;2022-08-18T13:18:22;31.90;50.80
37285;DHT22;23172;53.550;9.964;2022-08-18T13:23:24;31.90;50.20
37285;DHT22;23172;53.550;9.964;2022-08-18T13:28:30;32.00;50.20
37285;DHT22;23172;53.550;9.964;2022-08-18T13:33:33;32.10;50.00
37285;DHT22;23172;53.550;9.964;2022-08-18T13:38:35;32.10;49.70
37285;DHT22;23172;53.550;9.964;2022-08-18T13:43:40;32.20;49.30
37285;DHT22;23172;53.550;9.964;2022-08-18T13:48:43;32.00;49.10
37285;DHT22;23172;53.550;9.964;2022-08-18T13:53:45;31.60;49.40
37285;DHT22;23172;53.550;9.964;2022-08-18T13:58:48;31.50;50.00
37285;DHT22;23172;53.550;9.964;2022-08-18T14:03:50;31.60;50.00
37285;DHT22;23172;53.550;9.964;2022-08-18T14:08:52;31.80;49.70
37285;DHT22;23172;53.550;9.964;2022-08-18T14:13:57;31.90;49.40
37285;DHT22;23172;53.550;9.964;2022-08-18T14:18:59;32.00;49.20
37285;DHT22;23172;53.550;9.964;2022-08-18T14:24:18;32.00;49.00
37285;DHT22;23172;53.550;9.964;2022-08-18T14:29:38;31.80;48.90
37285;DHT22;23172;53.550;9.964;2022-08-18T14:34:42;31.80;49.70
37285;DHT22;23172;53.550;9.964;2022-08-18T14:39:45;31.80;49.00
37285;DHT22;23172;53.550;9.964;2022-08-18T14:44:48;31.80;49.00
37285;DHT22;23172;53.550;9.964;2022-08-18T14:49:50;31.80;49.20
37285;DHT22;23172;53.550;9.964;2022-08-18T14:54:52;31.80;49.20
37285;DHT22;23172;53.550;9.964;2022-08-18T14:59:56;31.80;49.20
37285;DHT22;23172;53.550;9.964;2022-08-18T15:04:57;31.70;49.40
37285;DHT22;23172;53.550;9.964;2022-08-18T15:09:59;31.50;49.30
37285;DHT22;23172;53.550;9.964;2022-08-18T15:15:03;31.20;49.70
37285;DHT22;23172;53.550;9.964;2022-08-18T15:20:07;30.80;50.30
37285;DHT22;23172;53.550;9.964;2022-08-18T15:25:09;30.40;51.10
37285;DHT22;23172;53.550;9.964;2022-08-18T15:30:30;30.10;51.90
37285;DHT22;23172;53.550;9.964;2022-08-18T15:35:32;30.00;52.20
37285;DHT22;23172;53.550;9.964;2022-08-18T15:40:34;30.10;52.20
37285;DHT22;23172;53.550;9.964;2022-08-18T15:45:39;30.00;52.20
37285;DHT22;23172;53.550;9.964;2022-08-18T15:50:45;30.00;52.30
37285;DHT22;23172;53.550;9.964;2022-08-18T15:55:48;29.80;52.40
37285;DHT22;23172;53.550;9.964;2022-08-18T16:00:51;29.60;52.50
37285;DHT22;23172;53.550;9.964;2022-08-18T16:05:54;29.40;52.90
37285;DHT22;23172;53.550;9.964;2022-08-18T16:10:56;29.30;53.10
37285;DHT22;23172;53.550;9.964;2022-08-18T16:15:59;29.20;53.20
37285;DHT22;23172;53.550;9.964;2022-08-18T16:21:03;29.00;53.50
37285;DHT22;23172;53.550;9.964;2022-08-18T16:26:11;28.90;53.90
37285;DHT22;23172;53.550;9.964;2022-08-18T16:31:15;28.70;54.10
37285;DHT22;23172;53.550;9.964;2022-08-18T16:36:20;28.60;54.40
37285;DHT22;23172;53.550;9.964;2022-08-18T16:41:25;28.50;54.60
37285;DHT22;23172;53.550;9.964;2022-08-18T16:46:28;28.40;54.80
37285;DHT22;23172;53.550;9.964;2022-08-18T16:51:31;28.30;55.00
37285;DHT22;23172;53.550;9.964;2022-08-18T16:56:33;28.20;55.40
37285;DHT22;23172;53.550;9.964;2022-08-18T17:01:38;28.10;55.80
37285;DHT22;23172;53.550;9.964;2022-08-18T17:06:58;27.90;56.10
37285;DHT22;23172;53.550;9.964;2022-08-18T17:12:00;27.80;56.50
37285;DHT22;23172;53.550;9.964;2022-08-18T17:17:04;27.70;57.10
37285;DHT22;23172;53.550;9.964;2022-08-18T17:22:07;27.70;57.30
37285;DHT22;23172;53.550;9.964;2022-08-18T17:27:13;27.70;57.40
37285;DHT22;23172;53.550;9.964;2022-08-18T17:32:20;27.50;57.40
37285;DHT22;23172;53.550;9.964;2022-08-18T17:37:24;27.40;57.60
37285;DHT22;23172;53.550;9.964;2022-08-18T17:42:26;27.40;57.80
37285;DHT22;23172;53.550;9.964;2022-08-18T17:47:36;27.30;57.90
37285;DHT22;23172;53.550;9.964;2022-08-18T17:52:42;27.10;58.40
37285;DHT22;23172;53.550;9.964;2022-08-18T17:57:52;26.90;58.70
37285;DHT22;23172;53.550;9.964;2022-08-18T18:02:56;26.80;59.00
37285;DHT22;23172;53.550;9.964;2022-08-18T18:07:59;26.60;59.50
37285;DHT22;23172;53.550;9.964;2022-08-18T18:13:06;26.50;59.80
37285;DHT22;23172;53.550;9.964;2022-08-18T18:18:24;26.40;59.90
37285;DHT22;23172;53.550;9.964;2022-08-18T18:23:29;26.30;60.10
37285;DHT22;23172;53.550;9.964;2022-08-18T18:28:33;26.10;60.30
37285;DHT22;23172;53.550;9.964;2022-08-18T18:33:36;26.10;60.40
37285;DHT22;23172;53.550;9.964;2022-08-18T18:38:39;26.10;60.30
37285;DHT22;23172;53.550;9.964;2022-08-18T18:43:46;26.00;60.50
37285;DHT22;23172;53.550;9.964;2022-08-18T18:49:00;25.90;61.20
37285;DHT22;23172;53.550;9.964;2022-08-18T18:54:11;25.90;60.40
37285;DHT22;23172;53.550;9.964;2022-08-18T18:59:19;25.80;60.20
37285;DHT22;23172;53.550;9.964;2022-08-18T19:04:31;25.60;60.50
37285;DHT22;23172;53.550;9.964;2022-08-18T19:09:39;25.60;60.60
37285;DHT22;23172;53.550;9.964;2022-08-18T19:14:47;25.50;60.80
37285;DHT22;23172;53.550;9.964;2022-08-18T19:19:56;25.30;60.90
37285;DHT22;23172;53.550;9.964;2022-08-18T19:25:05;25.20;61.30
37285;DHT22;23172;53.550;9.964;2022-08-18T19:30:11;25.20;61.30
37285;DHT22;23172;53.550;9.964;2022-08-18T19:35:17;25.10;61.60
37285;DHT22;23172;53.550;9.964;2022-08-18T19:40:24;25.10;61.70
37285;DHT22;23172;53.550;9.964;2022-08-18T19:45:32;25.10;61.70
37285;DHT22;23172;53.550;9.964;2022-08-18T19:50:42;25.10;61.70
37285;DHT22;23172;53.550;9.964;2022-08-18T19:56:00;25.10;61.80
37285;DHT22;23172;53.550;9.964;2022-08-18T20:01:10;25.10;61.80
37285;DHT22;23172;53.550;9.964;2022-08-18T20:06:34;24.90;62.00
37285;DHT22;23172;53.550;9.964;2022-08-18T20:11:54;24.90;63.10
37285;DHT22;23172;53.550;9.964;2022-08-18T20:17:16;24.90;62.30
37285;DHT22;23172;53.550;9.964;2022-08-18T20:22:31;25.00;62.30
37285;DHT22;23172;53.550;9.964;2022-08-18T20:27:37;25.00;62.30
37285;DHT22;23172;53.550;9.964;2022-08-18T20:32:39;25.00;62.30
37285;DHT22;23172;53.550;9.964;2022-08-18T20:37:42;25.00;62.40
37285;DHT22;23172;53.550;9.964;2022-08-18T20:42:45;25.00;62.50
37285;DHT22;23172;53.550;9.964;2022-08-18T20:48:10;25.00;62.60
37285;DHT22;23172;53.550;9.964;2022-08-18T20:58:53;25.00;63.10
37285;DHT22;23172;53.550;9.964;2022-08-18T21:03:57;25.00;63.20
37285;DHT22;23172;53.550;9.964;2022-08-18T21:09:00;25.00;63.20
37285;DHT22;23172;53.550;9.964;2022-08-18T21:14:03;25.00;63.40
37285;DHT22;23172;53.550;9.964;2022-08-18T21:19:08;25.00;63.70
37285;DHT22;23172;53.550;9.964;2022-08-18T21:24:30;25.00;63.90
37285;DHT22;23172;53.550;9.964;2022-08-18T21:29:32;25.00;63.80
37285;DHT22;23172;53.550;9.964;2022-08-18T21:34:38;24.90;64.10
37285;DHT22;23172;53.550;9.964;2022-08-18T21:39:52;24.80;64.30
37285;DHT22;23172;53.550;9.964;2022-08-18T21:44:56;24.60;64.70
37285;DHT22;23172;53.550;9.964;2022-08-18T21:50:09;24.60;65.00
37285;DHT22;23172;53.550;9.964;2022-08-18T21:55:18;24.60;64.80
37285;DHT22;23172;53.550;9.964;2022-08-18T22:00:25;24.60;64.90
37285;DHT22;23172;53.550;9.964;2022-08-18T22:05:30;24.60;64.90
37285;DHT22;23172;53.550;9.964;2022-08-18T22:10:33;24.60;65.00
37285;DHT22;23172;53.550;9.964;2022-08-18T22:15:53;24.70;65.00
37285;DHT22;23172;53.550;9.964;2022-08-18T22:20:55;24.50;65.20
37285;DHT22;23172;53.550;9.964;2022-08-18T22:26:06;24.40;65.40
37285;DHT22;23172;53.550;9.964;2022-08-18T22:31:08;24.40;65.60
37285;DHT22;23172;53.550;9.964;2022-08-18T22:36:16;24.40;65.60
37285;DHT22;23172;53.550;9.964;2022-08-18T22:41:20;24.50;65.90
37285;DHT22;23172;53.550;9.964;2022-08-18T22:46:22;24.50;65.60
37285;DHT22;23172;53.550;9.964;2022-08-18T22:51:26;24.60;65.70
37285;DHT22;23172;53.550;9.964;2022-08-18T22:56:31;24.50;65.50
37285;DHT22;23172;53.550;9.964;2022-08-18T23:01:32;24.50;65.70
37285;DHT22;23172;53.550;9.964;2022-08-18T23:06:34;24.50;65.80
37285;DHT22;23172;53.550;9.964;2022-08-18T23:11:37;24.50;65.90
37285;DHT22;23172;53.550;9.964;2022-08-18T23:16:39;24.60;65.80
37285;DHT22;23172;53.550;9.964;2022-08-18T23:21:45;24.60;65.60
37285;DHT22;23172;53.550;9.964;2022-08-18T23:26:49;24.60;65.70
37285;DHT22;23172;53.550;9.964;2022-08-18T23:31:51;24.60;65.60
37285;DHT22;23172;53.550;9.964;2022-08-18T23:36:54;24.60;65.60
37285;DHT22;23172;53.550;9.964;2022-08-18T23:41:58;24.60;65.40
37285;DHT22;23172;53.550;9.964;2022-08-18T23:47:01;24.60;65.50
37285;DHT22;23172;53.550;9.964;2022-08-18T23:52:03;24.60;66.30
37285;DHT22;23172;53.550;9.964;2022-08-18T23:57:06;24.60;65.60
